sensor_id;sensor_type;location;lat;lon;timestamp;pressure;altitude;pressure_sealevel;temperature;humidity
83273;BME280;73177;51.584;5.188;2023-11-19T00:01:00;100903.91;;;15.00;92.42
83273;BME280;73177;51.584;5.188;2023-11-19T00:03:26;100902.25;;;14.97;92.01
83273;BME280;73177;51.584;5.188;2023-11-19T00:05:51;100894.97;;;14.85;92.33
83273;BME280;73177;51.584;5.188;2023-11-19T00:08:16;100896.44;;;14.91;92.33
83273;BME280;73177;51.584;5.188;2023-11-19T00:10:42;100886.59;;;14.94;92.17
83273;BME280;73177;51.584;5.188;2023-11-19T00:13:07;100878.25;;;15.02;92.01
83273;BME280;73177;51.584;5.188;2023-11-19T00:15:33;100855.41;;;14.84;92.48
83273;BME280;73177;51.584;5.188;2023-11-19T00:17:58;100855.72;;;14.95;92.08
83273;BME280;73177;51.584;5.188;2023-11-19T00:20:23;100856.72;;;14.92;92.15
83273;BME280;73177;51.584;5.188;2023-11-19T00:22:49;100852.47;;;14.90;92.47
83273;BME280;73177;51.584;5.188;2023-11-19T00:25:18;100853.59;;;15.01;92.05
83273;BME280;73177;51.584;5.188;2023-11-19T00:27:43;100855.47;;;14.99;91.23
83273;BME280;73177;51.584;5.188;2023-11-19T00:30:12;100853.84;;;14.97;91.59
83273;BME280;73177;51.584;5.188;2023-11-19T00:32:38;100847.63;;;14.98;91.39
83273;BME280;73177;51.584;5.188;2023-11-19T00:35:07;100851.75;;;15.04;91.09
83273;BME280;73177;51.584;5.188;2023-11-19T00:37:33;100856.47;;;14.97;91.18
83273;BME280;73177;51.584;5.188;2023-11-19T00:39:58;100845.84;;;14.98;91.62
83273;BME280;73177;51.584;5.188;2023-11-19T00:42:24;100849.84;;;14.90;91.02
83273;BME280;73177;51.584;5.188;2023-11-19T00:44:50;100854.94;;;14.93;91.72
83273;BME280;73177;51.584;5.188;2023-11-19T00:47:15;100860.31;;;14.91;91.25
83273;BME280;73177;51.584;5.188;2023-11-19T00:49:40;100864.75;;;14.91;91.01
83273;BME280;73177;51.584;5.188;2023-11-19T00:52:06;100868.63;;;14.84;91.13
83273;BME280;73177;51.584;5.188;2023-11-19T00:54:32;100851.69;;;14.88;91.31
83273;BME280;73177;51.584;5.188;2023-11-19T00:56:57;100859.69;;;15.04;90.68
83273;BME280;73177;51.584;5.188;2023-11-19T00:59:22;100867.84;;;14.99;90.28
83273;BME280;73177;51.584;5.188;2023-11-19T01:01:48;100874.06;;;14.98;90.62
83273;BME280;73177;51.584;5.188;2023-11-19T01:04:13;100868.25;;;14.91;90.74
83273;BME280;73177;51.584;5.188;2023-11-19T01:06:39;100872.13;;;14.84;91.17
83273;BME280;73177;51.584;5.188;2023-11-19T01:09:04;100866.16;;;14.81;90.84
83273;BME280;73177;51.584;5.188;2023-11-19T01:11:29;100861.31;;;14.89;90.66
83273;BME280;73177;51.584;5.188;2023-11-19T01:13:54;100862.81;;;14.94;90.31
83273;BME280;73177;51.584;5.188;2023-11-19T01:16:20;100850.50;;;14.93;90.39
83273;BME280;73177;51.584;5.188;2023-11-19T01:18:49;100840.16;;;15.06;89.61
83273;BME280;73177;51.584;5.188;2023-11-19T01:21:15;100826.53;;;14.81;89.76
83273;BME280;73177;51.584;5.188;2023-11-19T01:23:41;100818.03;;;14.91;89.62
83273;BME280;73177;51.584;5.188;2023-11-19T01:26:09;100822.16;;;14.80;89.91
83273;BME280;73177;51.584;5.188;2023-11-19T01:28:35;100825.59;;;14.82;89.33
83273;BME280;73177;51.584;5.188;2023-11-19T01:31:01;100828.06;;;14.85;89.55
83273;BME280;73177;51.584;5.188;2023-11-19T01:33:26;100841.53;;;14.80;89.18
83273;BME280;73177;51.584;5.188;2023-11-19T01:35:53;100849.97;;;14.87;88.91
83273;BME280;73177;51.584;5.188;2023-11-19T01:38:18;100861.41;;;14.87;89.04
83273;BME280;73177;51.584;5.188;2023-11-19T01:40:43;100861.03;;;14.78;89.33
83273;BME280;73177;51.584;5.188;2023-11-19T01:43:09;100861.22;;;14.90;88.48
83273;BME280;73177;51.584;5.188;2023-11-19T01:45:37;100847.66;;;14.81;88.71
83273;BME280;73177;51.584;5.188;2023-11-19T01:48:03;100847.66;;;14.81;88.63
83273;BME280;73177;51.584;5.188;2023-11-19T01:50:32;100857.81;;;14.88;88.63
83273;BME280;73177;51.584;5.188;2023-11-19T01:52:58;100855.50;;;14.65;88.90
83273;BME280;73177;51.584;5.188;2023-11-19T01:55:24;100845.94;;;14.80;88.16
83273;BME280;73177;51.584;5.188;2023-11-19T01:57:50;100847.56;;;14.82;88.31
83273;BME280;73177;51.584;5.188;2023-11-19T02:00:18;100852.78;;;14.67;89.07
83273;BME280;73177;51.584;5.188;2023-11-19T02:02:45;100848.91;;;14.74;88.15
83273;BME280;73177;51.584;5.188;2023-11-19T02:05:11;100837.72;;;14.69;88.59
83273;BME280;73177;51.584;5.188;2023-11-19T02:07:38;100827.31;;;14.83;87.66
83273;BME280;73177;51.584;5.188;2023-11-19T02:10:03;100829.00;;;14.84;87.56
83273;BME280;73177;51.584;5.188;2023-11-19T02:12:31;100824.38;;;14.72;87.68
83273;BME280;73177;51.584;5.188;2023-11-19T02:14:59;100835.22;;;14.66;88.41
83273;BME280;73177;51.584;5.188;2023-11-19T02:17:28;100843.09;;;14.67;88.21
83273;BME280;73177;51.584;5.188;2023-11-19T02:19:56;100829.63;;;14.55;88.60
83273;BME280;73177;51.584;5.188;2023-11-19T02:22:21;100839.41;;;14.70;88.21
83273;BME280;73177;51.584;5.188;2023-11-19T02:24:49;100827.25;;;14.67;88.15
83273;BME280;73177;51.584;5.188;2023-11-19T02:27:27;100837.09;;;14.64;87.95
83273;BME280;73177;51.584;5.188;2023-11-19T02:29:56;100839.09;;;14.59;88.21
83273;BME280;73177;51.584;5.188;2023-11-19T02:32:21;100843.28;;;14.46;88.55
83273;BME280;73177;51.584;5.188;2023-11-19T02:34:46;100843.22;;;14.47;88.22
83273;BME280;73177;51.584;5.188;2023-11-19T02:37:12;100843.16;;;14.49;87.57
83273;BME280;73177;51.584;5.188;2023-11-19T02:39:37;100851.59;;;14.38;87.57
83273;BME280;73177;51.584;5.188;2023-11-19T02:42:02;100840.44;;;14.33;87.46
83273;BME280;73177;51.584;5.188;2023-11-19T02:44:28;100837.34;;;14.23;87.39
83273;BME280;73177;51.584;5.188;2023-11-19T02:46:55;100831.34;;;14.20;87.73
83273;BME280;73177;51.584;5.188;2023-11-19T02:49:25;100833.94;;;14.21;87.52
83273;BME280;73177;51.584;5.188;2023-11-19T02:51:50;100830.78;;;14.13;88.03
83273;BME280;73177;51.584;5.188;2023-11-19T02:54:15;100824.75;;;14.11;87.20
83273;BME280;73177;51.584;5.188;2023-11-19T02:56:44;100840.09;;;14.03;87.75
83273;BME280;73177;51.584;5.188;2023-11-19T02:59:13;100828.78;;;14.01;86.94
83273;BME280;73177;51.584;5.188;2023-11-19T03:01:52;100828.81;;;14.00;86.62
83273;BME280;73177;51.584;5.188;2023-11-19T03:04:17;100832.09;;;14.05;86.62
83273;BME280;73177;51.584;5.188;2023-11-19T03:06:45;100827.50;;;14.08;86.55
83273;BME280;73177;51.584;5.188;2023-11-19T03:09:10;100827.41;;;13.93;86.85
83273;BME280;73177;51.584;5.188;2023-11-19T03:11:36;100834.41;;;13.94;86.21
83273;BME280;73177;51.584;5.188;2023-11-19T03:14:01;100830.00;;;13.94;86.20
83273;BME280;73177;51.584;5.188;2023-11-19T03:16:28;100839.69;;;13.75;86.73
83273;BME280;73177;51.584;5.188;2023-11-19T03:18:53;100837.19;;;13.72;86.57
83273;BME280;73177;51.584;5.188;2023-11-19T03:21:18;100845.31;;;13.86;85.67
83273;BME280;73177;51.584;5.188;2023-11-19T03:23:44;100842.41;;;13.92;85.16
83273;BME280;73177;51.584;5.188;2023-11-19T03:26:10;100846.50;;;13.98;84.21
83273;BME280;73177;51.584;5.188;2023-11-19T03:28:36;100831.63;;;13.97;83.20
83273;BME280;73177;51.584;5.188;2023-11-19T03:31:04;100832.84;;;13.90;83.30
83273;BME280;73177;51.584;5.188;2023-11-19T03:33:29;100821.91;;;13.97;82.96
83273;BME280;73177;51.584;5.188;2023-11-19T03:35:56;100828.28;;;13.93;83.27
83273;BME280;73177;51.584;5.188;2023-11-19T03:38:22;100824.53;;;13.97;82.73
83273;BME280;73177;51.584;5.188;2023-11-19T03:40:47;100825.28;;;14.01;83.21
83273;BME280;73177;51.584;5.188;2023-11-19T03:43:12;100842.09;;;13.98;83.10
83273;BME280;73177;51.584;5.188;2023-11-19T03:45:38;100843.97;;;13.96;83.54
83273;BME280;73177;51.584;5.188;2023-11-19T03:48:03;100829.13;;;13.94;83.88
83273;BME280;73177;51.584;5.188;2023-11-19T03:50:29;100830.88;;;13.76;84.35
83273;BME280;73177;51.584;5.188;2023-11-19T03:52:54;100830.22;;;13.71;84.88
83273;BME280;73177;51.584;5.188;2023-11-19T03:55:19;100848.03;;;13.66;85.07
83273;BME280;73177;51.584;5.188;2023-11-19T03:57:45;100825.47;;;13.61;85.52
83273;BME280;73177;51.584;5.188;2023-11-19T04:00:12;100840.97;;;13.48;86.36
83273;BME280;73177;51.584;5.188;2023-11-19T04:02:39;100838.75;;;13.39;86.42
83273;BME280;73177;51.584;5.188;2023-11-19T04:05:05;100839.78;;;13.55;85.35
83273;BME280;73177;51.584;5.188;2023-11-19T04:07:31;100844.59;;;13.45;85.77
83273;BME280;73177;51.584;5.188;2023-11-19T04:09:57;100854.38;;;13.43;85.69
83273;BME280;73177;51.584;5.188;2023-11-19T04:12:22;100831.75;;;13.38;85.29
83273;BME280;73177;51.584;5.188;2023-11-19T04:14:48;100852.59;;;13.44;85.21
83273;BME280;73177;51.584;5.188;2023-11-19T04:17:13;100835.63;;;13.49;84.04
83273;BME280;73177;51.584;5.188;2023-11-19T04:19:39;100841.53;;;13.54;83.79
83273;BME280;73177;51.584;5.188;2023-11-19T04:22:09;100820.22;;;13.40;83.67
83273;BME280;73177;51.584;5.188;2023-11-19T04:24:35;100836.44;;;13.51;83.36
83273;BME280;73177;51.584;5.188;2023-11-19T04:27:00;100846.78;;;13.56;82.62
83273;BME280;73177;51.584;5.188;2023-11-19T04:29:26;100843.53;;;13.49;82.86
83273;BME280;73177;51.584;5.188;2023-11-19T04:31:51;100841.63;;;13.53;83.55
83273;BME280;73177;51.584;5.188;2023-11-19T04:34:16;100853.88;;;13.54;83.55
83273;BME280;73177;51.584;5.188;2023-11-19T04:36:42;100846.91;;;13.72;82.67
83273;BME280;73177;51.584;5.188;2023-11-19T04:39:09;100848.25;;;13.62;83.11
83273;BME280;73177;51.584;5.188;2023-11-19T04:41:50;100843.28;;;13.55;83.34
83273;BME280;73177;51.584;5.188;2023-11-19T04:44:19;100858.88;;;13.60;83.67
83273;BME280;73177;51.584;5.188;2023-11-19T04:46:45;100842.53;;;13.52;83.63
83273;BME280;73177;51.584;5.188;2023-11-19T04:49:11;100858.09;;;13.58;83.52
83273;BME280;73177;51.584;5.188;2023-11-19T04:51:43;100861.06;;;13.50;83.69
83273;BME280;73177;51.584;5.188;2023-11-19T04:54:09;100857.53;;;13.51;83.56
83273;BME280;73177;51.584;5.188;2023-11-19T04:56:36;100859.50;;;13.46;83.45
83273;BME280;73177;51.584;5.188;2023-11-19T04:59:02;100864.16;;;13.60;83.54
83273;BME280;73177;51.584;5.188;2023-11-19T05:01:27;100868.78;;;13.55;83.51
83273;BME280;73177;51.584;5.188;2023-11-19T05:03:53;100870.63;;;13.53;83.61
83273;BME280;73177;51.584;5.188;2023-11-19T05:06:18;100865.22;;;13.56;83.71
83273;BME280;73177;51.584;5.188;2023-11-19T05:08:44;100870.91;;;13.47;83.69
83273;BME280;73177;51.584;5.188;2023-11-19T05:11:10;100859.44;;;13.48;83.92
83273;BME280;73177;51.584;5.188;2023-11-19T05:13:37;100864.81;;;13.45;83.46
83273;BME280;73177;51.584;5.188;2023-11-19T05:16:03;100855.44;;;13.39;83.16
83273;BME280;73177;51.584;5.188;2023-11-19T05:18:28;100865.84;;;13.42;83.41
83273;BME280;73177;51.584;5.188;2023-11-19T05:20:54;100864.25;;;13.38;83.30
83273;BME280;73177;51.584;5.188;2023-11-19T05:23:19;100863.69;;;13.32;83.01
83273;BME280;73177;51.584;5.188;2023-11-19T05:25:45;100865.13;;;13.39;82.41
83273;BME280;73177;51.584;5.188;2023-11-19T05:28:10;100873.22;;;13.34;82.77
83273;BME280;73177;51.584;5.188;2023-11-19T05:30:36;100866.72;;;13.23;82.51
83273;BME280;73177;51.584;5.188;2023-11-19T05:33:01;100878.91;;;13.25;83.01
83273;BME280;73177;51.584;5.188;2023-11-19T05:35:26;100873.16;;;13.36;82.12
83273;BME280;73177;51.584;5.188;2023-11-19T05:37:52;100878.22;;;13.40;82.49
83273;BME280;73177;51.584;5.188;2023-11-19T05:40:17;100881.34;;;13.30;83.35
83273;BME280;73177;51.584;5.188;2023-11-19T05:42:43;100877.78;;;13.31;82.59
83273;BME280;73177;51.584;5.188;2023-11-19T05:45:11;100882.81;;;13.17;82.50
83273;BME280;73177;51.584;5.188;2023-11-19T05:47:37;100877.00;;;13.09;83.88
83273;BME280;73177;51.584;5.188;2023-11-19T05:50:02;100881.09;;;13.16;83.06
83273;BME280;73177;51.584;5.188;2023-11-19T05:52:28;100879.91;;;13.23;83.22
83273;BME280;73177;51.584;5.188;2023-11-19T05:54:59;100877.78;;;13.11;82.74
83273;BME280;73177;51.584;5.188;2023-11-19T05:57:27;100886.84;;;13.05;83.75
83273;BME280;73177;51.584;5.188;2023-11-19T05:59:54;100888.09;;;13.17;83.30
83273;BME280;73177;51.584;5.188;2023-11-19T06:02:19;100884.91;;;13.09;83.95
83273;BME280;73177;51.584;5.188;2023-11-19T06:04:45;100888.22;;;13.14;83.50
83273;BME280;73177;51.584;5.188;2023-11-19T06:07:13;100885.94;;;13.05;84.08
83273;BME280;73177;51.584;5.188;2023-11-19T06:09:38;100878.59;;;13.13;83.85
83273;BME280;73177;51.584;5.188;2023-11-19T06:12:03;100881.84;;;12.98;84.50
83273;BME280;73177;51.584;5.188;2023-11-19T06:14:31;100875.69;;;12.99;84.24
83273;BME280;73177;51.584;5.188;2023-11-19T06:16:56;100877.25;;;13.03;83.88
83273;BME280;73177;51.584;5.188;2023-11-19T06:19:22;100861.44;;;13.03;83.61
83273;BME280;73177;51.584;5.188;2023-11-19T06:21:49;100867.63;;;13.02;83.58
83273;BME280;73177;51.584;5.188;2023-11-19T06:24:15;100871.59;;;12.92;84.50
83273;BME280;73177;51.584;5.188;2023-11-19T06:26:40;100874.03;;;12.96;83.75
83273;BME280;73177;51.584;5.188;2023-11-19T06:29:05;100881.16;;;12.94;83.85
83273;BME280;73177;51.584;5.188;2023-11-19T06:31:31;100871.53;;;12.93;83.76
83273;BME280;73177;51.584;5.188;2023-11-19T06:33:56;100858.44;;;12.92;83.62
83273;BME280;73177;51.584;5.188;2023-11-19T06:36:21;100869.16;;;12.87;83.67
83273;BME280;73177;51.584;5.188;2023-11-19T06:38:47;100863.81;;;12.88;83.88
83273;BME280;73177;51.584;5.188;2023-11-19T06:41:12;100862.91;;;12.89;83.68
83273;BME280;73177;51.584;5.188;2023-11-19T06:43:37;100860.78;;;12.98;83.44
83273;BME280;73177;51.584;5.188;2023-11-19T06:46:03;100876.75;;;12.95;83.11
83273;BME280;73177;51.584;5.188;2023-11-19T06:48:34;100873.25;;;12.94;82.92
83273;BME280;73177;51.584;5.188;2023-11-19T06:51:00;100868.38;;;12.85;83.29
83273;BME280;73177;51.584;5.188;2023-11-19T06:53:25;100885.44;;;12.97;82.81
83273;BME280;73177;51.584;5.188;2023-11-19T06:55:53;100892.84;;;12.87;83.00
83273;BME280;73177;51.584;5.188;2023-11-19T06:58:18;100898.31;;;12.82;83.56
83273;BME280;73177;51.584;5.188;2023-11-19T07:00:44;100896.75;;;12.78;83.61
83273;BME280;73177;51.584;5.188;2023-11-19T07:03:11;100913.06;;;12.86;83.20
83273;BME280;73177;51.584;5.188;2023-11-19T07:05:36;100915.09;;;12.80;83.44
83273;BME280;73177;51.584;5.188;2023-11-19T07:08:04;100917.66;;;12.81;83.49
83273;BME280;73177;51.584;5.188;2023-11-19T07:10:29;100908.38;;;12.73;83.33
83273;BME280;73177;51.584;5.188;2023-11-19T07:12:56;100925.16;;;12.70;83.84
83273;BME280;73177;51.584;5.188;2023-11-19T07:15:21;100925.53;;;12.83;83.22
83273;BME280;73177;51.584;5.188;2023-11-19T07:17:47;100925.13;;;12.72;83.69
83273;BME280;73177;51.584;5.188;2023-11-19T07:20:13;100925.81;;;12.75;84.06
83273;BME280;73177;51.584;5.188;2023-11-19T07:22:45;100923.56;;;12.66;83.69
83273;BME280;73177;51.584;5.188;2023-11-19T07:25:13;100930.69;;;12.64;83.89
83273;BME280;73177;51.584;5.188;2023-11-19T07:27:38;100938.47;;;12.67;84.07
83273;BME280;73177;51.584;5.188;2023-11-19T07:30:04;100933.81;;;12.74;83.52
83273;BME280;73177;51.584;5.188;2023-11-19T07:32:30;100934.22;;;12.63;83.55
83273;BME280;73177;51.584;5.188;2023-11-19T07:34:55;100932.00;;;12.74;83.69
83273;BME280;73177;51.584;5.188;2023-11-19T07:37:21;100929.06;;;12.82;83.17
83273;BME280;73177;51.584;5.188;2023-11-19T07:39:47;100935.97;;;12.84;83.56
83273;BME280;73177;51.584;5.188;2023-11-19T07:42:13;100942.31;;;12.80;83.70
83273;BME280;73177;51.584;5.188;2023-11-19T07:44:38;100933.31;;;12.64;84.21
83273;BME280;73177;51.584;5.188;2023-11-19T07:47:03;100943.94;;;12.83;83.86
83273;BME280;73177;51.584;5.188;2023-11-19T07:49:29;100930.03;;;12.79;83.76
83273;BME280;73177;51.584;5.188;2023-11-19T07:51:55;100935.38;;;12.78;83.98
83273;BME280;73177;51.584;5.188;2023-11-19T07:54:21;100916.53;;;12.67;84.36
83273;BME280;73177;51.584;5.188;2023-11-19T07:56:46;100928.16;;;12.83;83.94
83273;BME280;73177;51.584;5.188;2023-11-19T07:59:12;100938.50;;;12.87;84.11
83273;BME280;73177;51.584;5.188;2023-11-19T08:01:37;100939.28;;;12.89;83.39
83273;BME280;73177;51.584;5.188;2023-11-19T08:04:03;100945.75;;;13.03;83.14
83273;BME280;73177;51.584;5.188;2023-11-19T08:06:28;100950.22;;;13.01;83.84
83273;BME280;73177;51.584;5.188;2023-11-19T08:08:54;100939.31;;;13.10;83.10
83273;BME280;73177;51.584;5.188;2023-11-19T08:11:19;100950.28;;;12.99;83.23
83273;BME280;73177;51.584;5.188;2023-11-19T08:13:45;100942.88;;;13.09;82.64
83273;BME280;73177;51.584;5.188;2023-11-19T08:16:10;100932.13;;;13.13;82.98
83273;BME280;73177;51.584;5.188;2023-11-19T08:18:36;100940.63;;;13.20;82.47
83273;BME280;73177;51.584;5.188;2023-11-19T08:21:01;100940.91;;;13.14;82.91
83273;BME280;73177;51.584;5.188;2023-11-19T08:23:29;100942.47;;;13.18;83.34
83273;BME280;73177;51.584;5.188;2023-11-19T08:25:55;100927.00;;;13.10;82.71
83273;BME280;73177;51.584;5.188;2023-11-19T08:28:20;100943.81;;;13.08;83.06
83273;BME280;73177;51.584;5.188;2023-11-19T08:30:46;100935.63;;;13.34;82.14
83273;BME280;73177;51.584;5.188;2023-11-19T08:33:11;100932.28;;;13.30;81.74
83273;BME280;73177;51.584;5.188;2023-11-19T08:35:36;100936.41;;;13.36;81.79
83273;BME280;73177;51.584;5.188;2023-11-19T08:38:01;100940.34;;;13.46;81.60
83273;BME280;73177;51.584;5.188;2023-11-19T08:40:27;100941.44;;;13.42;81.64
83273;BME280;73177;51.584;5.188;2023-11-19T08:42:53;100945.47;;;13.69;81.06
83273;BME280;73177;51.584;5.188;2023-11-19T08:45:18;100941.81;;;13.90;80.74
83273;BME280;73177;51.584;5.188;2023-11-19T08:47:43;100948.75;;;13.93;79.49
83273;BME280;73177;51.584;5.188;2023-11-19T08:50:11;100956.75;;;14.10;79.19
83273;BME280;73177;51.584;5.188;2023-11-19T08:52:36;100939.22;;;14.46;77.46
83273;BME280;73177;51.584;5.188;2023-11-19T08:55:01;100940.13;;;14.81;77.29
83273;BME280;73177;51.584;5.188;2023-11-19T08:57:28;100955.84;;;14.65;77.31
83273;BME280;73177;51.584;5.188;2023-11-19T08:59:53;100949.97;;;14.77;77.40
83273;BME280;73177;51.584;5.188;2023-11-19T09:02:18;100958.81;;;14.41;78.73
83273;BME280;73177;51.584;5.188;2023-11-19T09:04:44;100951.69;;;14.24;79.17
83273;BME280;73177;51.584;5.188;2023-11-19T09:07:09;100960.31;;;14.46;78.30
83273;BME280;73177;51.584;5.188;2023-11-19T09:09:35;100946.78;;;14.71;77.16
83273;BME280;73177;51.584;5.188;2023-11-19T09:12:02;100944.75;;;14.40;78.51
83273;BME280;73177;51.584;5.188;2023-11-19T09:14:28;100951.88;;;14.57;78.81
83273;BME280;73177;51.584;5.188;2023-11-19T09:16:53;100956.06;;;14.61;79.11
83273;BME280;73177;51.584;5.188;2023-11-19T09:19:18;100936.16;;;15.07;76.67
83273;BME280;73177;51.584;5.188;2023-11-19T09:21:44;100929.63;;;15.14;76.31
83273;BME280;73177;51.584;5.188;2023-11-19T09:24:09;100929.41;;;15.01;76.22
83273;BME280;73177;51.584;5.188;2023-11-19T09:26:35;100936.41;;;15.19;76.01
83273;BME280;73177;51.584;5.188;2023-11-19T09:29:01;100919.97;;;15.30;75.21
83273;BME280;73177;51.584;5.188;2023-11-19T09:31:27;100935.00;;;15.12;76.17
83273;BME280;73177;51.584;5.188;2023-11-19T09:33:52;100947.38;;;14.94;76.57
83273;BME280;73177;51.584;5.188;2023-11-19T09:36:18;100939.47;;;15.61;76.61
83273;BME280;73177;51.584;5.188;2023-11-19T09:38:45;100942.13;;;15.77;75.25
83273;BME280;73177;51.584;5.188;2023-11-19T09:41:10;100933.28;;;15.45;75.90
83273;BME280;73177;51.584;5.188;2023-11-19T09:43:39;100947.53;;;15.76;73.68
83273;BME280;73177;51.584;5.188;2023-11-19T09:46:06;100949.38;;;15.24;75.51
83273;BME280;73177;51.584;5.188;2023-11-19T09:48:35;100950.53;;;15.01;75.89
83273;BME280;73177;51.584;5.188;2023-11-19T09:51:06;100948.97;;;15.14;76.43
83273;BME280;73177;51.584;5.188;2023-11-19T09:53:36;100933.72;;;15.36;74.49
83273;BME280;73177;51.584;5.188;2023-11-19T09:56:04;100939.16;;;15.33;75.51
83273;BME280;73177;51.584;5.188;2023-11-19T09:58:31;100928.53;;;15.00;75.92
83273;BME280;73177;51.584;5.188;2023-11-19T10:01:01;100928.63;;;14.99;75.96
83273;BME280;73177;51.584;5.188;2023-11-19T10:03:33;100936.66;;;15.64;75.04
83273;BME280;73177;51.584;5.188;2023-11-19T10:06:00;100937.63;;;15.95;73.39
83273;BME280;73177;51.584;5.188;2023-11-19T10:08:26;100933.50;;;16.53;71.42
83273;BME280;73177;51.584;5.188;2023-11-19T10:10:52;100938.34;;;15.98;72.49
83273;BME280;73177;51.584;5.188;2023-11-19T10:13:18;100936.16;;;15.74;75.14
83273;BME280;73177;51.584;5.188;2023-11-19T10:15:45;100895.31;;;15.29;74.62
83273;BME280;73177;51.584;5.188;2023-11-19T10:18:15;100883.34;;;15.22;75.18
83273;BME280;73177;51.584;5.188;2023-11-19T10:20:45;100918.66;;;15.21;75.57
83273;BME280;73177;51.584;5.188;2023-11-19T10:23:11;100914.03;;;15.42;74.68
83273;BME280;73177;51.584;5.188;2023-11-19T10:25:37;100924.97;;;15.68;74.66
83273;BME280;73177;51.584;5.188;2023-11-19T10:28:02;100925.84;;;15.69;74.82
83273;BME280;73177;51.584;5.188;2023-11-19T10:30:31;100921.72;;;15.63;74.68
83273;BME280;73177;51.584;5.188;2023-11-19T10:35:51;100906.84;;;15.61;75.28
83273;BME280;73177;51.584;5.188;2023-11-19T10:38:18;100914.38;;;15.19;74.72
83273;BME280;73177;51.584;5.188;2023-11-19T10:40:47;100935.94;;;15.78;74.71
83273;BME280;73177;51.584;5.188;2023-11-19T10:43:18;100948.66;;;15.87;72.66
83273;BME280;73177;51.584;5.188;2023-11-19T10:45:48;100920.75;;;15.49;74.55
83273;BME280;73177;51.584;5.188;2023-11-19T10:48:17;100906.75;;;15.47;73.69
83273;BME280;73177;51.584;5.188;2023-11-19T10:50:44;100892.09;;;15.07;75.13
83273;BME280;73177;51.584;5.188;2023-11-19T10:53:14;100884.31;;;15.04;74.80
83273;BME280;73177;51.584;5.188;2023-11-19T10:55:47;100927.97;;;15.45;74.53
83273;BME280;73177;51.584;5.188;2023-11-19T10:58:16;100856.19;;;15.03;75.94
83273;BME280;73177;51.584;5.188;2023-11-19T11:00:51;100908.66;;;15.43;75.08
83273;BME280;73177;51.584;5.188;2023-11-19T11:03:21;100891.75;;;15.13;74.80
83273;BME280;73177;51.584;5.188;2023-11-19T11:05:50;100865.28;;;14.80;74.70
83273;BME280;73177;51.584;5.188;2023-11-19T11:08:17;100861.38;;;15.05;75.69
83273;BME280;73177;51.584;5.188;2023-11-19T11:10:54;100909.06;;;15.36;74.97
83273;BME280;73177;51.584;5.188;2023-11-19T11:13:23;100886.56;;;14.77;75.66
83273;BME280;73177;51.584;5.188;2023-11-19T11:15:56;100898.31;;;14.89;75.66
83273;BME280;73177;51.584;5.188;2023-11-19T11:18:24;100919.75;;;15.17;75.39
83273;BME280;73177;51.584;5.188;2023-11-19T11:20:51;100921.25;;;15.06;74.67
83273;BME280;73177;51.584;5.188;2023-11-19T11:26:41;100914.56;;;14.98;77.06
83273;BME280;73177;51.584;5.188;2023-11-19T11:29:26;100919.28;;;14.75;78.85
83273;BME280;73177;51.584;5.188;2023-11-19T11:35:08;100898.63;;;15.00;79.79
83273;BME280;73177;51.584;5.188;2023-11-19T11:37:46;100889.34;;;15.09;79.45
83273;BME280;73177;51.584;5.188;2023-11-19T11:40:16;100900.16;;;15.04;78.50
83273;BME280;73177;51.584;5.188;2023-11-19T11:42:44;100894.09;;;14.68;79.13
83273;BME280;73177;51.584;5.188;2023-11-19T11:45:10;100896.28;;;14.77;79.52
83273;BME280;73177;51.584;5.188;2023-11-19T11:50:12;100887.06;;;14.85;79.06
83273;BME280;73177;51.584;5.188;2023-11-19T11:57:56;100878.88;;;15.07;77.58
83273;BME280;73177;51.584;5.188;2023-11-19T12:00:30;100885.75;;;15.44;74.85
83273;BME280;73177;51.584;5.188;2023-11-19T12:02:59;100881.63;;;15.71;75.45
83273;BME280;73177;51.584;5.188;2023-11-19T12:05:24;100876.59;;;15.82;74.98
83273;BME280;73177;51.584;5.188;2023-11-19T12:08:05;100879.31;;;15.65;74.90
83273;BME280;73177;51.584;5.188;2023-11-19T12:10:37;100867.53;;;15.70;74.37
83273;BME280;73177;51.584;5.188;2023-11-19T12:13:06;100864.66;;;15.91;74.92
83273;BME280;73177;51.584;5.188;2023-11-19T12:15:32;100853.94;;;15.45;74.97
83273;BME280;73177;51.584;5.188;2023-11-19T12:17:58;100860.50;;;15.54;75.29
83273;BME280;73177;51.584;5.188;2023-11-19T12:20:25;100851.47;;;15.25;76.42
83273;BME280;73177;51.584;5.188;2023-11-19T12:22:52;100846.22;;;15.41;75.84
83273;BME280;73177;51.584;5.188;2023-11-19T12:25:19;100847.75;;;15.62;75.26
83273;BME280;73177;51.584;5.188;2023-11-19T12:27:52;100844.56;;;15.23;76.30
83273;BME280;73177;51.584;5.188;2023-11-19T12:30:22;100843.59;;;15.08;76.68
83273;BME280;73177;51.584;5.188;2023-11-19T12:32:48;100854.50;;;15.35;76.07
83273;BME280;73177;51.584;5.188;2023-11-19T12:35:14;100875.97;;;15.61;75.49
83273;BME280;73177;51.584;5.188;2023-11-19T12:40:26;100869.75;;;15.47;76.18
83273;BME280;73177;51.584;5.188;2023-11-19T12:42:53;100843.78;;;15.21;77.60
83273;BME280;73177;51.584;5.188;2023-11-19T12:45:20;100859.94;;;15.32;76.49
83273;BME280;73177;51.584;5.188;2023-11-19T12:47:47;100862.81;;;15.27;76.66
83273;BME280;73177;51.584;5.188;2023-11-19T12:50:14;100859.94;;;15.32;76.87
83273;BME280;73177;51.584;5.188;2023-11-19T12:52:39;100860.69;;;15.01;77.97
83273;BME280;73177;51.584;5.188;2023-11-19T12:55:23;100855.19;;;14.71;81.69
83273;BME280;73177;51.584;5.188;2023-11-19T12:57:50;100852.78;;;14.67;83.01
83273;BME280;73177;51.584;5.188;2023-11-19T13:00:19;100857.03;;;14.52;83.43
83273;BME280;73177;51.584;5.188;2023-11-19T13:02:54;100860.69;;;14.33;84.05
83273;BME280;73177;51.584;5.188;2023-11-19T13:07:46;100871.47;;;14.26;83.68
83273;BME280;73177;51.584;5.188;2023-11-19T13:10:11;100851.91;;;14.32;82.55